createdAt,value
2022-11-09T00:01:30.041Z,1.20
2022-11-09T00:03:57.282Z,1.40
2022-11-09T00:06:24.460Z,1.70
2022-11-09T00:08:51.016Z,1.77
2022-11-09T00:11:17.697Z,1.43
2022-11-09T00:13:44.627Z,1.30
2022-11-09T00:16:12.241Z,1.50
2022-11-09T00:18:38.620Z,1.40
2022-11-09T00:21:05.935Z,1.40
2022-11-09T00:23:33.031Z,1.63
2022-11-09T00:26:00.051Z,1.80
2022-11-09T00:28:26.178Z,1.60
2022-11-09T00:30:58.369Z,1.87
2022-11-09T00:33:24.472Z,1.80
2022-11-09T00:35:50.607Z,1.57
2022-11-09T00:38:16.759Z,1.43
2022-11-09T00:40:43.574Z,1.57
2022-11-09T00:43:09.683Z,1.37
2022-11-09T00:45:35.971Z,1.50
2022-11-09T00:48:03.132Z,1.40
2022-11-09T00:50:29.444Z,1.40
2022-11-09T00:52:55.599Z,1.30
2022-11-09T00:55:23.176Z,1.33
2022-11-09T00:57:50.184Z,1.50
2022-11-09T01:00:16.824Z,1.40
2022-11-09T01:02:43.033Z,1.53
2022-11-09T01:05:09.157Z,1.93
2022-11-09T01:07:36.281Z,1.30
2022-11-09T01:10:02.571Z,1.57
2022-11-09T01:12:28.688Z,1.60
2022-11-09T01:14:55.445Z,1.70
2022-11-09T01:17:21.688Z,1.70
2022-11-09T01:19:48.900Z,1.40
2022-11-09T01:22:15.012Z,1.40
2022-11-09T01:24:41.215Z,1.67
2022-11-09T01:27:07.495Z,1.70
2022-11-09T01:29:33.598Z,1.47
2022-11-09T01:32:00.376Z,1.53
2022-11-09T01:34:27.687Z,1.47
2022-11-09T01:36:53.909Z,1.30
2022-11-09T01:39:20.327Z,1.40
2022-11-09T01:41:47.063Z,1.37
2022-11-09T01:44:15.476Z,1.30
2022-11-09T01:46:47.184Z,1.50
2022-11-09T01:49:30.875Z,1.80
2022-11-09T01:52:00.193Z,1.37
2022-11-09T01:54:28.760Z,1.23
2022-11-09T01:56:57.530Z,1.30
2022-11-09T01:59:29.425Z,1.57
2022-11-09T02:01:56.017Z,1.40
2022-11-09T02:04:25.445Z,1.47
2022-11-09T02:06:52.481Z,1.40
2022-11-09T02:09:23.650Z,1.40
2022-11-09T02:11:49.787Z,1.10
2022-11-09T02:14:16.568Z,1.20
2022-11-09T02:16:43.272Z,1.40
2022-11-09T02:19:09.453Z,1.30
2022-11-09T02:21:36.240Z,1.50
2022-11-09T02:24:02.383Z,1.23
2022-11-09T02:26:31.606Z,1.30
2022-11-09T02:28:59.358Z,1.00
2022-11-09T02:31:29.318Z,1.30
2022-11-09T02:33:59.261Z,1.30
2022-11-09T02:36:25.411Z,1.20
2022-11-09T02:38:53.106Z,1.50
2022-11-09T02:41:20.349Z,1.33
2022-11-09T02:43:46.471Z,1.37
2022-11-09T02:46:12.643Z,1.33
2022-11-09T02:48:38.781Z,1.43
2022-11-09T02:51:05.201Z,1.60
2022-11-09T02:53:31.336Z,1.50
2022-11-09T02:55:58.164Z,1.90
2022-11-09T02:58:24.305Z,1.50
2022-11-09T03:00:50.540Z,1.50
2022-11-09T03:03:16.877Z,1.30
2022-11-09T03:05:43.593Z,1.50
2022-11-09T03:08:09.805Z,1.47
2022-11-09T03:10:35.969Z,1.43
2022-11-09T03:13:02.783Z,1.20
2022-11-09T03:15:28.919Z,1.57
2022-11-09T03:17:55.992Z,1.40
2022-11-09T03:20:22.185Z,1.33
2022-11-09T03:22:48.277Z,1.40
2022-11-09T03:25:14.560Z,1.20
2022-11-09T03:27:40.701Z,1.30
2022-11-09T03:30:09.016Z,1.10
2022-11-09T03:32:35.188Z,1.40
2022-11-09T03:35:01.333Z,1.73
2022-11-09T03:37:27.737Z,1.20
2022-11-09T03:39:53.893Z,1.20
2022-11-09T03:42:20.087Z,1.23
2022-11-09T03:44:46.209Z,1.30
2022-11-09T03:47:12.977Z,1.60
2022-11-09T03:49:39.192Z,1.20
2022-11-09T03:52:05.353Z,1.47
2022-11-09T03:54:31.488Z,1.50
2022-11-09T03:56:57.657Z,1.50
2022-11-09T03:59:23.841Z,1.40
2022-11-09T04:01:50.000Z,1.33
2022-11-09T04:04:16.803Z,1.30
2022-11-09T04:06:43.051Z,1.37
2022-11-09T04:09:09.587Z,1.17
2022-11-09T04:11:35.727Z,1.60
2022-11-09T04:14:01.892Z,1.47
2022-11-09T04:16:28.089Z,1.20
2022-11-09T04:18:54.267Z,1.50
2022-11-09T04:21:23.899Z,1.37
2022-11-09T04:23:50.247Z,1.53
2022-11-09T04:26:16.432Z,1.63
2022-11-09T04:28:42.570Z,1.23
2022-11-09T04:31:08.777Z,1.10
2022-11-09T04:33:37.462Z,1.03
2022-11-09T04:36:04.339Z,1.13
2022-11-09T04:38:31.567Z,1.50
2022-11-09T04:41:00.769Z,1.10
2022-11-09T04:43:26.920Z,1.30
2022-11-09T04:45:53.101Z,1.50
2022-11-09T04:48:19.192Z,1.67
2022-11-09T04:50:45.354Z,1.03
2022-11-09T04:53:13.246Z,1.50
2022-11-09T04:55:40.598Z,1.30
2022-11-09T04:58:06.883Z,1.60
2022-11-09T05:00:33.495Z,1.50
2022-11-09T05:03:00.720Z,1.40
2022-11-09T05:05:26.979Z,1.90
2022-11-09T05:07:53.094Z,1.80
2022-11-09T05:10:19.279Z,1.40
2022-11-09T05:12:46.231Z,1.40
2022-11-09T05:15:12.626Z,1.87
2022-11-09T05:17:38.951Z,1.33
2022-11-09T05:20:05.960Z,1.50
2022-11-09T05:22:50.544Z,1.33
2022-11-09T05:25:16.748Z,1.43
2022-11-09T05:27:42.847Z,1.43
2022-11-09T05:30:11.341Z,1.70
2022-11-09T05:32:39.126Z,1.57
2022-11-09T05:35:06.315Z,1.50
2022-11-09T05:37:32.452Z,1.60
2022-11-09T05:39:58.658Z,1.57
2022-11-09T05:42:24.792Z,1.47
2022-11-09T05:44:50.912Z,2.00
2022-11-09T05:47:19.395Z,1.30
2022-11-09T05:49:45.510Z,1.80
2022-11-09T05:52:11.997Z,1.20
2022-11-09T05:54:38.100Z,1.70
2022-11-09T05:57:04.278Z,2.10
2022-11-09T05:59:30.385Z,1.87
2022-11-09T06:01:56.576Z,1.87
2022-11-09T06:04:23.476Z,1.40
2022-11-09T06:06:49.749Z,1.63
2022-11-09T06:09:15.921Z,1.40
2022-11-09T06:11:42.861Z,1.50
2022-11-09T06:14:09.124Z,1.27
2022-11-09T06:16:36.267Z,1.60
2022-11-09T06:19:02.720Z,1.70
2022-11-09T06:21:30.000Z,1.90
2022-11-09T06:23:56.344Z,1.50
2022-11-09T06:26:22.764Z,1.40
2022-11-09T06:28:49.071Z,1.17
2022-11-09T06:31:16.166Z,1.67
2022-11-09T06:33:42.719Z,1.10
2022-11-09T06:36:09.760Z,1.77
2022-11-09T06:38:36.513Z,1.27
2022-11-09T06:41:02.620Z,1.33
2022-11-09T06:43:29.517Z,1.13
2022-11-09T06:45:56.500Z,1.20
2022-11-09T06:48:23.280Z,1.10
2022-11-09T06:50:49.736Z,1.40
2022-11-09T06:53:17.199Z,1.60
2022-11-09T06:55:49.109Z,1.53
2022-11-09T06:58:16.471Z,1.40
2022-11-09T07:00:43.206Z,1.70
2022-11-09T07:03:13.448Z,2.10
2022-11-09T07:05:39.730Z,1.37
2022-11-09T07:08:06.176Z,1.47
2022-11-09T07:10:32.615Z,1.50
2022-11-09T07:12:59.519Z,1.60
2022-11-09T07:15:25.769Z,1.40
2022-11-09T07:17:56.283Z,1.33
2022-11-09T07:20:22.680Z,1.37
2022-11-09T07:22:49.170Z,1.43
2022-11-09T07:25:15.518Z,1.53
2022-11-09T07:27:41.832Z,1.43
2022-11-09T07:30:10.195Z,1.47
2022-11-09T07:35:23.287Z,1.43
2022-11-09T07:37:49.469Z,1.83
2022-11-09T07:40:15.637Z,1.40
2022-11-09T07:42:42.153Z,1.80
2022-11-09T07:45:09.609Z,1.60
2022-11-09T07:47:35.917Z,1.57
2022-11-09T07:50:02.437Z,1.60
2022-11-09T07:52:28.684Z,2.20
2022-11-09T07:54:54.959Z,1.87
2022-11-09T07:57:21.582Z,1.40
2022-11-09T07:59:47.928Z,1.30
2022-11-09T08:02:14.880Z,1.53
2022-11-09T08:04:41.217Z,1.40
2022-11-09T08:07:07.623Z,1.40
2022-11-09T08:09:34.339Z,1.23
2022-11-09T08:12:00.518Z,1.33
2022-11-09T08:14:27.083Z,1.27
2022-11-09T08:16:54.316Z,1.00
2022-11-09T08:19:21.126Z,1.50
2022-11-09T08:21:47.234Z,1.20
2022-11-09T08:24:13.834Z,1.30
2022-11-09T08:26:40.349Z,1.33
2022-11-09T08:29:06.571Z,1.13
2022-11-09T08:31:32.812Z,1.10
2022-11-09T08:33:59.052Z,1.50
2022-11-09T08:36:27.915Z,1.30
2022-11-09T08:38:54.120Z,2.07
2022-11-09T08:41:20.260Z,1.77
2022-11-09T08:43:46.397Z,2.53
2022-11-09T08:46:12.687Z,2.83
2022-11-09T08:48:38.864Z,1.93
2022-11-09T08:51:05.305Z,2.07
2022-11-09T08:53:32.100Z,1.90
2022-11-09T08:55:58.636Z,2.00
2022-11-09T08:58:24.883Z,1.60
2022-11-09T09:00:51.004Z,1.83
2022-11-09T09:03:17.219Z,1.60
2022-11-09T09:05:43.471Z,1.40
2022-11-09T09:08:10.952Z,1.50
2022-11-09T09:10:37.799Z,1.70
2022-11-09T09:13:04.292Z,2.07
2022-11-09T09:15:30.719Z,1.90
2022-11-09T09:17:59.446Z,1.70
2022-11-09T09:20:25.686Z,1.80
2022-11-09T09:22:52.276Z,1.80
2022-11-09T09:25:18.437Z,2.10
2022-11-09T09:27:45.370Z,1.60
2022-11-09T09:30:12.671Z,1.50
2022-11-09T09:32:38.816Z,1.43
2022-11-09T09:35:06.036Z,1.50
2022-11-09T09:37:32.174Z,2.20
2022-11-09T09:39:58.369Z,1.30
2022-11-09T09:42:30.416Z,1.10
2022-11-09T09:45:01.582Z,1.40
2022-11-09T09:47:37.125Z,1.10
2022-11-09T09:50:08.443Z,1.63
2022-11-09T09:52:40.119Z,1.40
2022-11-09T09:55:09.903Z,1.70
2022-11-09T09:57:41.495Z,1.30
2022-11-09T10:00:18.654Z,1.90
2022-11-09T10:02:44.893Z,1.37
2022-11-09T10:05:15.305Z,2.40
2022-11-09T10:07:46.579Z,1.30
2022-11-09T10:10:38.082Z,1.50
2022-11-09T10:13:26.668Z,1.43
2022-11-09T10:15:56.352Z,1.50
2022-11-09T10:18:33.132Z,1.73
2022-11-09T10:21:11.601Z,1.93
2022-11-09T10:23:49.862Z,2.07
2022-11-09T10:26:18.622Z,1.87
2022-11-09T10:29:14.539Z,2.07
2022-11-09T10:31:35.476Z,1.97
2022-11-09T10:34:07.544Z,1.93
2022-11-09T10:36:41.279Z,2.30
2022-11-09T10:39:08.513Z,1.70
2022-11-09T10:41:43.504Z,2.13
2022-11-09T10:44:17.149Z,2.10
2022-11-09T10:47:06.426Z,1.90
2022-11-09T10:49:33.436Z,1.53
2022-11-09T10:52:00.208Z,1.70
2022-11-09T10:54:27.771Z,1.97
2022-11-09T10:57:06.039Z,2.03
2022-11-09T10:59:43.692Z,1.83
2022-11-09T11:02:45.409Z,2.00
2022-11-09T11:05:31.197Z,1.40
2022-11-09T11:07:58.369Z,1.87
2022-11-09T11:10:24.799Z,1.63
2022-11-09T11:13:19.088Z,1.70
2022-11-09T11:15:45.989Z,1.40
2022-11-09T11:18:18.376Z,1.47
2022-11-09T11:20:44.871Z,1.80
2022-11-09T11:23:13.450Z,1.33
2022-11-09T11:25:58.217Z,1.60
2022-11-09T11:28:30.192Z,1.30
2022-11-09T11:30:56.355Z,1.30
2022-11-09T11:33:23.566Z,1.40
2022-11-09T11:35:54.363Z,1.53
2022-11-09T11:38:26.240Z,1.30
2022-11-09T11:41:01.099Z,1.40
2022-11-09T11:43:40.912Z,1.37
2022-11-09T11:46:14.885Z,1.10
2022-11-09T11:49:11.380Z,1.30
2022-11-09T11:51:43.932Z,1.60
2022-11-09T11:54:16.428Z,1.80
2022-11-09T11:56:46.688Z,2.07
2022-11-09T11:59:41.337Z,1.77
2022-11-09T12:02:52.451Z,1.60
2022-11-09T12:05:47.549Z,1.53
2022-11-09T12:08:19.370Z,1.57
2022-11-09T12:10:53.633Z,1.40
2022-11-09T12:13:45.815Z,1.43
2022-11-09T12:16:21.678Z,1.40
2022-11-09T12:18:54.563Z,1.87
2022-11-09T12:21:26.882Z,1.50
2022-11-09T12:24:14.956Z,1.63
2022-11-09T12:27:17.857Z,1.93
2022-11-09T12:29:47.420Z,1.70
2022-11-09T12:32:21.155Z,1.13
2022-11-09T12:34:52.955Z,1.50
2022-11-09T12:37:24.281Z,1.53
2022-11-09T12:39:52.233Z,1.80
2022-11-09T12:42:20.705Z,1.50
2022-11-09T12:44:57.548Z,1.40
2022-11-09T12:47:28.775Z,1.83
2022-11-09T12:49:55.705Z,1.70
2022-11-09T12:52:27.401Z,2.53
2022-11-09T12:54:54.167Z,1.80
2022-11-09T12:57:22.478Z,1.60
2022-11-09T12:59:50.534Z,1.50
2022-11-09T13:02:27.963Z,1.43
2022-11-09T13:04:55.743Z,1.83
2022-11-09T13:07:48.665Z,2.10
2022-11-09T13:10:27.120Z,1.73
2022-11-09T13:13:02.372Z,1.80
2022-11-09T13:15:29.959Z,1.80
2022-11-09T13:18:02.694Z,1.73
2022-11-09T13:20:54.719Z,2.03
2022-11-09T13:23:47.589Z,1.60
2022-11-09T13:26:50.599Z,2.10
2022-11-09T13:29:25.635Z,1.97
2022-11-09T13:32:04.291Z,1.83
2022-11-09T13:34:42.301Z,1.73
2022-11-09T13:37:37.192Z,1.70
2022-11-09T13:40:36.705Z,1.60
2022-11-09T13:43:04.842Z,1.87
2022-11-09T13:45:33.927Z,1.60
2022-11-09T13:48:00.148Z,1.90
2022-11-09T13:50:27.718Z,1.77
2022-11-09T13:52:57.113Z,1.90
2022-11-09T13:55:25.865Z,1.63
2022-11-09T13:57:53.452Z,2.00
2022-11-09T14:00:22.719Z,1.60
2022-11-09T14:02:56.721Z,1.83
2022-11-09T14:05:28.174Z,1.53
2022-11-09T14:07:55.152Z,1.70
2022-11-09T14:10:30.487Z,1.50
2022-11-09T14:13:07.923Z,1.97
2022-11-09T14:15:41.899Z,1.73
2022-11-09T14:18:18.947Z,1.87
2022-11-09T14:20:52.357Z,1.60
2022-11-09T14:23:20.246Z,1.70
2022-11-09T14:25:48.278Z,1.37
2022-11-09T14:28:21.437Z,1.40
2022-11-09T14:30:48.522Z,1.70
2022-11-09T14:33:20.897Z,1.70
2022-11-09T14:35:47.182Z,2.00
2022-11-09T14:38:16.697Z,1.73
2022-11-09T14:40:44.680Z,1.30
2022-11-09T14:43:23.379Z,1.70
2022-11-09T14:45:51.810Z,1.23
2022-11-09T14:48:19.641Z,1.40
2022-11-09T14:50:46.492Z,1.40
2022-11-09T14:53:14.858Z,1.17
2022-11-09T14:55:41.376Z,1.47
2022-11-09T14:58:11.232Z,1.47
2022-11-09T15:00:40.724Z,1.50
2022-11-09T15:03:25.907Z,1.60
2022-11-09T15:06:03.297Z,1.40
2022-11-09T15:08:29.669Z,1.40
2022-11-09T15:10:55.799Z,1.33
2022-11-09T15:13:29.957Z,1.63
2022-11-09T15:15:56.148Z,1.50
2022-11-09T15:18:30.353Z,1.40
2022-11-09T15:21:13.784Z,1.60
2022-11-09T15:23:41.209Z,1.63
2022-11-09T15:26:25.037Z,1.50
2022-11-09T15:28:51.662Z,1.70
2022-11-09T15:31:18.661Z,1.10
2022-11-09T15:33:48.174Z,1.27
2022-11-09T15:36:35.723Z,1.30
2022-11-09T15:39:08.221Z,1.40
2022-11-09T15:41:35.560Z,1.60
2022-11-09T15:44:01.763Z,1.83
2022-11-09T15:46:33.168Z,1.53
2022-11-09T15:49:14.719Z,1.73
2022-11-09T15:51:40.948Z,1.70
2022-11-09T15:54:07.245Z,1.77
2022-11-09T15:56:33.349Z,1.60
2022-11-09T15:58:59.486Z,1.80
2022-11-09T16:01:25.758Z,1.70
2022-11-09T16:03:51.938Z,1.50
2022-11-09T16:06:21.490Z,1.67
2022-11-09T16:08:47.905Z,1.77
2022-11-09T16:11:14.432Z,1.83
2022-11-09T16:13:40.746Z,2.10
2022-11-09T16:16:08.416Z,2.50
2022-11-09T16:18:34.689Z,1.73
2022-11-09T16:21:06.933Z,1.80
2022-11-09T16:23:33.813Z,1.70
2022-11-09T16:26:04.177Z,1.40
2022-11-09T16:28:30.293Z,1.80
2022-11-09T16:30:56.490Z,1.73
2022-11-09T16:33:22.620Z,1.20
2022-11-09T16:35:49.219Z,1.60
2022-11-09T16:38:15.454Z,1.43
2022-11-09T16:40:43.378Z,1.87
2022-11-09T16:43:09.645Z,1.60
2022-11-09T16:45:36.140Z,1.73
2022-11-09T16:48:03.884Z,1.70
2022-11-09T16:50:30.050Z,1.83
2022-11-09T16:52:56.181Z,1.70
2022-11-09T16:55:22.297Z,1.60
2022-11-09T16:57:49.116Z,2.20
2022-11-09T17:00:17.752Z,2.23
2022-11-09T17:02:43.904Z,1.90
2022-11-09T17:05:10.111Z,1.50
2022-11-09T17:07:42.614Z,1.50
2022-11-09T17:10:09.984Z,2.00
2022-11-09T17:12:36.656Z,2.07
2022-11-09T17:15:03.956Z,2.70
2022-11-09T17:17:30.175Z,2.23
2022-11-09T17:19:56.373Z,2.50
2022-11-09T17:22:22.567Z,2.57
2022-11-09T17:24:48.739Z,2.63
2022-11-09T17:27:14.952Z,2.27
2022-11-09T17:29:42.931Z,2.70
2022-11-09T17:32:10.097Z,2.07
2022-11-09T17:34:36.285Z,2.10
2022-11-09T17:37:04.679Z,1.60
2022-11-09T17:39:31.681Z,2.00
2022-11-09T17:41:57.832Z,2.13
2022-11-09T17:44:24.185Z,2.00
2022-11-09T17:46:50.717Z,2.33
2022-11-09T17:49:17.488Z,1.63
2022-11-09T17:51:43.650Z,1.80
2022-11-09T17:54:09.874Z,2.03
2022-11-09T17:56:36.050Z,1.50
2022-11-09T17:59:03.313Z,1.50
2022-11-09T18:01:29.987Z,1.57
2022-11-09T18:03:56.160Z,1.60
2022-11-09T18:06:24.068Z,1.97
2022-11-09T18:09:10.795Z,1.73
2022-11-09T18:11:36.799Z,1.60
2022-11-09T18:14:02.944Z,1.60
2022-11-09T18:16:29.134Z,1.27
2022-11-09T18:18:59.193Z,1.83
2022-11-09T18:21:27.703Z,1.80
2022-11-09T18:23:54.333Z,1.40
2022-11-09T18:26:20.553Z,1.80
2022-11-09T18:28:46.817Z,1.50
2022-11-09T18:31:13.966Z,1.70
2022-11-09T18:33:40.763Z,1.93
2022-11-09T18:36:10.648Z,1.57
2022-11-09T18:38:37.581Z,1.87
2022-11-09T18:41:05.585Z,2.20
2022-11-09T18:43:31.809Z,2.23
2022-11-09T18:45:59.967Z,2.07
2022-11-09T18:48:27.204Z,1.93
2022-11-09T18:50:54.261Z,1.83
2022-11-09T18:53:21.561Z,2.23
2022-11-09T18:55:48.961Z,2.20
2022-11-09T18:58:15.619Z,2.00
2022-11-09T19:00:42.280Z,1.90
2022-11-09T19:03:10.313Z,2.30
2022-11-09T19:05:38.725Z,1.63
2022-11-09T19:08:04.919Z,2.13
2022-11-09T19:10:31.373Z,2.13
2022-11-09T19:12:58.163Z,1.87
2022-11-09T19:15:24.396Z,2.00
2022-11-09T19:17:50.546Z,2.20
2022-11-09T19:20:17.517Z,2.20
2022-11-09T19:22:43.792Z,1.77
2022-11-09T19:25:09.959Z,1.90
2022-11-09T19:27:36.172Z,2.27
2022-11-09T19:30:09.215Z,2.40
2022-11-09T19:32:35.971Z,2.10
2022-11-09T19:35:02.351Z,2.00
2022-11-09T19:37:28.487Z,2.10
2022-11-09T19:39:54.759Z,2.40
2022-11-09T19:42:20.928Z,2.10
2022-11-09T19:44:49.803Z,1.90
2022-11-09T19:47:18.961Z,1.80
2022-11-09T19:49:45.147Z,1.97
2022-11-09T19:52:11.867Z,2.17
2022-11-09T19:54:37.984Z,1.90
2022-11-09T19:57:04.318Z,1.97
2022-11-09T19:59:30.480Z,2.23
2022-11-09T20:01:56.687Z,2.50
2022-11-09T20:04:23.644Z,2.17
2022-11-09T20:06:49.844Z,2.10
2022-11-09T20:09:16.352Z,1.70
2022-11-09T20:12:01.059Z,2.23
2022-11-09T20:14:27.208Z,2.10
2022-11-09T20:16:54.744Z,1.60
2022-11-09T20:19:23.028Z,1.90
2022-11-09T20:21:49.792Z,1.80
2022-11-09T20:24:16.026Z,1.83
2022-11-09T20:26:43.153Z,2.10
2022-11-09T20:29:09.388Z,2.00
2022-11-09T20:31:36.564Z,2.00
2022-11-09T20:34:02.916Z,2.50
2022-11-09T20:36:29.098Z,1.97
2022-11-09T20:38:57.058Z,2.20
2022-11-09T20:41:25.624Z,2.30
2022-11-09T20:43:52.192Z,2.07
2022-11-09T20:46:20.440Z,1.93
2022-11-09T20:48:55.579Z,2.00
2022-11-09T20:51:23.595Z,2.10
2022-11-09T20:53:50.424Z,1.90
2022-11-09T20:56:18.125Z,1.80
2022-11-09T20:58:44.729Z,1.60
2022-11-09T21:01:13.038Z,1.70
2022-11-09T21:03:40.509Z,1.97
2022-11-09T21:06:07.516Z,2.20
2022-11-09T21:08:34.065Z,1.77
2022-11-09T21:11:00.865Z,2.07
2022-11-09T21:13:27.719Z,2.13
2022-11-09T21:15:54.048Z,2.40
2022-11-09T21:18:20.691Z,2.13
2022-11-09T21:20:47.123Z,2.10
2022-11-09T21:23:31.342Z,2.10
2022-11-09T21:26:17.079Z,1.93
2022-11-09T21:29:02.437Z,1.90
2022-11-09T21:31:28.600Z,1.77
2022-11-09T21:33:54.723Z,1.80
2022-11-09T21:36:22.307Z,2.30
2022-11-09T21:38:48.537Z,2.33
2022-11-09T21:41:32.079Z,2.27
2022-11-09T21:43:58.833Z,1.80
2022-11-09T21:46:25.004Z,1.90
2022-11-09T21:48:51.140Z,1.80
2022-11-09T21:51:17.273Z,1.73
2022-11-09T21:53:43.556Z,1.97
2022-11-09T21:56:09.830Z,2.43
2022-11-09T21:58:36.067Z,2.00
2022-11-09T22:01:03.981Z,2.10
2022-11-09T22:03:30.174Z,2.00
2022-11-09T22:05:56.438Z,2.20
2022-11-09T22:08:22.706Z,2.13
2022-11-09T22:10:48.891Z,2.00
2022-11-09T22:13:33.915Z,2.20
2022-11-09T22:16:05.772Z,2.37
2022-11-09T22:18:51.508Z,1.97
2022-11-09T22:21:18.300Z,2.40
2022-11-09T22:23:44.405Z,2.07
2022-11-09T22:26:10.652Z,1.97
2022-11-09T22:28:36.778Z,2.10
2022-11-09T22:31:03.603Z,1.87
2022-11-09T22:33:30.992Z,2.83
2022-11-09T22:35:59.518Z,2.07
2022-11-09T22:38:25.775Z,1.80
2022-11-09T22:40:51.932Z,2.07
2022-11-09T22:43:18.320Z,1.73
2022-11-09T22:45:44.767Z,1.90
2022-11-09T22:48:10.954Z,2.20
2022-11-09T22:50:37.256Z,1.77
2022-11-09T22:53:04.289Z,2.40
2022-11-09T22:55:30.915Z,1.70
2022-11-09T22:57:57.501Z,1.63
2022-11-09T23:00:23.835Z,2.17
2022-11-09T23:02:50.006Z,2.03
2022-11-09T23:05:16.300Z,2.03
2022-11-09T23:07:42.524Z,2.77
2022-11-09T23:10:09.779Z,2.10
2022-11-09T23:12:36.237Z,2.07
2022-11-09T23:15:05.210Z,2.03
2022-11-09T23:17:50.160Z,2.10
2022-11-09T23:20:16.581Z,1.90
2022-11-09T23:22:42.768Z,2.20
2022-11-09T23:25:28.442Z,2.00
2022-11-09T23:27:54.722Z,1.90
2022-11-09T23:30:21.533Z,1.90
2022-11-09T23:32:47.733Z,2.20
2022-11-09T23:35:14.368Z,2.33
2022-11-09T23:37:40.588Z,1.87
2022-11-09T23:40:08.151Z,1.90
2022-11-09T23:42:35.244Z,2.43
2022-11-09T23:45:01.419Z,2.43
2022-11-09T23:47:27.592Z,2.10
2022-11-09T23:49:53.753Z,2.03
2022-11-09T23:52:19.902Z,2.07
2022-11-09T23:54:46.077Z,2.40
2022-11-09T23:57:12.329Z,1.87
2022-11-09T23:59:39.274Z,2.37
